sensor_id;sensor_type;location;lat;lon;timestamp;pressure;altitude;pressure_sealevel;temperature;humidity
11124;BME280;5616;42.692;23.312;2023-04-25T00:01:28;94376.28;;;12.85;98.92
11124;BME280;5616;42.692;23.312;2023-04-25T00:03:55;94370.16;;;12.79;97.95
11124;BME280;5616;42.692;23.312;2023-04-25T00:06:22;94367.16;;;12.76;96.05
11124;BME280;5616;42.692;23.312;2023-04-25T00:08:51;94361.16;;;12.82;96.78
11124;BME280;5616;42.692;23.312;2023-04-25T00:11:18;94347.19;;;12.83;95.74
11124;BME280;5616;42.692;23.312;2023-04-25T00:13:45;94344.84;;;12.75;95.13
11124;BME280;5616;42.692;23.312;2023-04-25T00:16:13;94331.00;;;12.63;94.71
11124;BME280;5616;42.692;23.312;2023-04-25T00:18:41;94321.66;;;12.62;95.66
11124;BME280;5616;42.692;23.312;2023-04-25T00:21:08;94327.84;;;12.61;96.95
11124;BME280;5616;42.692;23.312;2023-04-25T00:23:35;94336.06;;;12.51;99.45
11124;BME280;5616;42.692;23.312;2023-04-25T00:26:02;94334.59;;;12.62;98.63
11124;BME280;5616;42.692;23.312;2023-04-25T00:28:29;94328.19;;;12.64;98.28
11124;BME280;5616;42.692;23.312;2023-04-25T00:30:56;94326.81;;;12.62;99.01
11124;BME280;5616;42.692;23.312;2023-04-25T00:33:24;94325.00;;;12.69;98.76
11124;BME280;5616;42.692;23.312;2023-04-25T00:35:50;94324.63;;;12.65;98.62
11124;BME280;5616;42.692;23.312;2023-04-25T00:38:17;94331.81;;;12.63;98.32
11124;BME280;5616;42.692;23.312;2023-04-25T00:40:44;94327.84;;;12.61;98.51
11124;BME280;5616;42.692;23.312;2023-04-25T00:43:11;94335.72;;;12.48;100.00
11124;BME280;5616;42.692;23.312;2023-04-25T00:45:39;94331.22;;;12.37;100.00
11124;BME280;5616;42.692;23.312;2023-04-25T00:48:06;94327.50;;;12.19;100.00
11124;BME280;5616;42.692;23.312;2023-04-25T00:50:35;94337.88;;;12.19;100.00
11124;BME280;5616;42.692;23.312;2023-04-25T00:53:03;94343.66;;;12.21;100.00
11124;BME280;5616;42.692;23.312;2023-04-25T00:55:30;94343.00;;;12.33;100.00
11124;BME280;5616;42.692;23.312;2023-04-25T00:57:58;94339.34;;;12.40;100.00
11124;BME280;5616;42.692;23.312;2023-04-25T01:00:24;94337.13;;;12.44;100.00
11124;BME280;5616;42.692;23.312;2023-04-25T01:02:51;94335.13;;;12.46;99.66
11124;BME280;5616;42.692;23.312;2023-04-25T01:05:18;94320.03;;;12.43;98.97
11124;BME280;5616;42.692;23.312;2023-04-25T01:07:46;94305.69;;;12.40;99.79
11124;BME280;5616;42.692;23.312;2023-04-25T01:10:13;94307.34;;;12.35;99.54
11124;BME280;5616;42.692;23.312;2023-04-25T01:12:40;94308.47;;;12.39;99.13
11124;BME280;5616;42.692;23.312;2023-04-25T01:15:08;94302.19;;;12.28;100.00
11124;BME280;5616;42.692;23.312;2023-04-25T01:17:35;94301.16;;;12.04;100.00
11124;BME280;5616;42.692;23.312;2023-04-25T01:20:03;94302.84;;;11.86;100.00
11124;BME280;5616;42.692;23.312;2023-04-25T01:22:32;94287.50;;;11.91;100.00
11124;BME280;5616;42.692;23.312;2023-04-25T01:25:00;94288.09;;;11.93;100.00
11124;BME280;5616;42.692;23.312;2023-04-25T01:27:27;94289.13;;;11.85;100.00
11124;BME280;5616;42.692;23.312;2023-04-25T01:29:56;94289.88;;;11.92;100.00
11124;BME280;5616;42.692;23.312;2023-04-25T01:32:23;94287.66;;;11.96;100.00
11124;BME280;5616;42.692;23.312;2023-04-25T01:34:50;94283.59;;;12.06;100.00
11124;BME280;5616;42.692;23.312;2023-04-25T01:37:18;94286.00;;;12.08;100.00
11124;BME280;5616;42.692;23.312;2023-04-25T01:39:47;94293.78;;;12.08;100.00
11124;BME280;5616;42.692;23.312;2023-04-25T01:42:15;94288.44;;;11.96;100.00
11124;BME280;5616;42.692;23.312;2023-04-25T01:44:42;94295.25;;;11.91;100.00
11124;BME280;5616;42.692;23.312;2023-04-25T01:47:10;94287.97;;;11.68;100.00
11124;BME280;5616;42.692;23.312;2023-04-25T01:49:36;94286.22;;;11.69;100.00
11124;BME280;5616;42.692;23.312;2023-04-25T01:52:04;94294.16;;;11.67;100.00
11124;BME280;5616;42.692;23.312;2023-04-25T01:54:31;94310.91;;;11.51;100.00
11124;BME280;5616;42.692;23.312;2023-04-25T01:56:59;94306.72;;;11.57;100.00
11124;BME280;5616;42.692;23.312;2023-04-25T01:59:27;94301.56;;;11.57;100.00
11124;BME280;5616;42.692;23.312;2023-04-25T02:02:24;94303.00;;;11.46;100.00
11124;BME280;5616;42.692;23.312;2023-04-25T02:04:51;94299.81;;;11.51;100.00
11124;BME280;5616;42.692;23.312;2023-04-25T02:07:20;94302.75;;;11.54;100.00
11124;BME280;5616;42.692;23.312;2023-04-25T02:09:51;94295.34;;;11.64;100.00
11124;BME280;5616;42.692;23.312;2023-04-25T02:12:20;94294.78;;;11.62;100.00
11124;BME280;5616;42.692;23.312;2023-04-25T02:15:06;94289.41;;;11.71;100.00
11124;BME280;5616;42.692;23.312;2023-04-25T02:17:48;94291.75;;;11.72;100.00
11124;BME280;5616;42.692;23.312;2023-04-25T02:20:15;94281.00;;;11.75;100.00
11124;BME280;5616;42.692;23.312;2023-04-25T02:22:42;94273.25;;;11.75;100.00
11124;BME280;5616;42.692;23.312;2023-04-25T02:25:10;94275.34;;;11.47;100.00
11124;BME280;5616;42.692;23.312;2023-04-25T02:27:39;94269.78;;;11.43;100.00
11124;BME280;5616;42.692;23.312;2023-04-25T02:30:07;94265.34;;;11.57;100.00
11124;BME280;5616;42.692;23.312;2023-04-25T02:32:35;94251.63;;;11.56;100.00
11124;BME280;5616;42.692;23.312;2023-04-25T02:35:02;94255.81;;;11.64;100.00
11124;BME280;5616;42.692;23.312;2023-04-25T02:37:30;94253.22;;;11.64;100.00
11124;BME280;5616;42.692;23.312;2023-04-25T02:39:56;94254.69;;;11.47;100.00
11124;BME280;5616;42.692;23.312;2023-04-25T02:42:23;94249.13;;;11.43;100.00
11124;BME280;5616;42.692;23.312;2023-04-25T02:44:52;94254.72;;;11.40;100.00
11124;BME280;5616;42.692;23.312;2023-04-25T02:47:20;94254.91;;;11.39;100.00
11124;BME280;5616;42.692;23.312;2023-04-25T02:49:48;94241.00;;;11.40;100.00
11124;BME280;5616;42.692;23.312;2023-04-25T02:52:15;94241.75;;;11.47;100.00
11124;BME280;5616;42.692;23.312;2023-04-25T02:54:44;94239.75;;;11.49;100.00
11124;BME280;5616;42.692;23.312;2023-04-25T02:57:11;94246.50;;;11.50;100.00
11124;BME280;5616;42.692;23.312;2023-04-25T02:59:38;94253.63;;;11.54;100.00
11124;BME280;5616;42.692;23.312;2023-04-25T03:02:06;94246.19;;;11.33;100.00
11124;BME280;5616;42.692;23.312;2023-04-25T03:04:33;94241.41;;;11.37;100.00
11124;BME280;5616;42.692;23.312;2023-04-25T03:07:00;94239.56;;;11.44;100.00
11124;BME280;5616;42.692;23.312;2023-04-25T03:09:27;94242.16;;;11.44;100.00
11124;BME280;5616;42.692;23.312;2023-04-25T03:11:53;94227.03;;;11.47;100.00
11124;BME280;5616;42.692;23.312;2023-04-25T03:14:20;94235.09;;;11.26;100.00
11124;BME280;5616;42.692;23.312;2023-04-25T03:16:47;94242.72;;;11.08;100.00
11124;BME280;5616;42.692;23.312;2023-04-25T03:19:17;94243.47;;;11.22;100.00
11124;BME280;5616;42.692;23.312;2023-04-25T03:21:46;94234.50;;;11.24;100.00
11124;BME280;5616;42.692;23.312;2023-04-25T03:24:14;94229.94;;;11.20;100.00
11124;BME280;5616;42.692;23.312;2023-04-25T03:26:40;94224.63;;;11.52;100.00
11124;BME280;5616;42.692;23.312;2023-04-25T03:29:08;94238.84;;;11.30;100.00
11124;BME280;5616;42.692;23.312;2023-04-25T03:31:35;94232.22;;;11.41;100.00
11124;BME280;5616;42.692;23.312;2023-04-25T03:34:02;94233.91;;;11.22;100.00
11124;BME280;5616;42.692;23.312;2023-04-25T03:36:30;94225.66;;;11.45;100.00
11124;BME280;5616;42.692;23.312;2023-04-25T03:38:58;94228.66;;;11.42;100.00
11124;BME280;5616;42.692;23.312;2023-04-25T03:41:26;94225.91;;;11.37;100.00
11124;BME280;5616;42.692;23.312;2023-04-25T03:43:58;94231.47;;;11.40;100.00
11124;BME280;5616;42.692;23.312;2023-04-25T03:46:26;94238.59;;;11.45;100.00
11124;BME280;5616;42.692;23.312;2023-04-25T03:48:53;94220.16;;;11.35;100.00
11124;BME280;5616;42.692;23.312;2023-04-25T03:51:24;94230.47;;;11.35;100.00
11124;BME280;5616;42.692;23.312;2023-04-25T03:53:53;94231.88;;;11.37;100.00
11124;BME280;5616;42.692;23.312;2023-04-25T03:56:40;94225.41;;;11.53;100.00
11124;BME280;5616;42.692;23.312;2023-04-25T03:59:16;94229.34;;;11.69;100.00
11124;BME280;5616;42.692;23.312;2023-04-25T04:01:44;94223.69;;;11.85;100.00
11124;BME280;5616;42.692;23.312;2023-04-25T04:04:11;94238.94;;;11.93;100.00
11124;BME280;5616;42.692;23.312;2023-04-25T04:06:38;94246.00;;;11.79;100.00
11124;BME280;5616;42.692;23.312;2023-04-25T04:09:15;94239.63;;;11.75;100.00
11124;BME280;5616;42.692;23.312;2023-04-25T04:11:43;94244.78;;;11.82;100.00
11124;BME280;5616;42.692;23.312;2023-04-25T04:14:10;94251.28;;;11.91;100.00
11124;BME280;5616;42.692;23.312;2023-04-25T04:16:40;94243.22;;;12.05;100.00
11124;BME280;5616;42.692;23.312;2023-04-25T04:19:08;94245.41;;;12.08;99.90
11124;BME280;5616;42.692;23.312;2023-04-25T04:21:35;94237.72;;;12.20;100.00
11124;BME280;5616;42.692;23.312;2023-04-25T04:24:02;94241.50;;;12.24;100.00
11124;BME280;5616;42.692;23.312;2023-04-25T04:26:38;94234.78;;;12.16;100.00
11124;BME280;5616;42.692;23.312;2023-04-25T04:29:31;94224.91;;;12.32;100.00
11124;BME280;5616;42.692;23.312;2023-04-25T04:32:02;94237.59;;;12.40;98.76
11124;BME280;5616;42.692;23.312;2023-04-25T04:34:31;94238.28;;;12.28;99.52
11124;BME280;5616;42.692;23.312;2023-04-25T04:36:59;94248.78;;;12.34;99.07
11124;BME280;5616;42.692;23.312;2023-04-25T04:39:26;94242.81;;;12.33;99.01
11124;BME280;5616;42.692;23.312;2023-04-25T04:42:06;94242.47;;;12.30;98.64
11124;BME280;5616;42.692;23.312;2023-04-25T04:44:56;94248.19;;;12.07;100.00
11124;BME280;5616;42.692;23.312;2023-04-25T04:47:47;94242.47;;;12.30;100.00
11124;BME280;5616;42.692;23.312;2023-04-25T04:50:31;94249.81;;;12.33;99.78
11124;BME280;5616;42.692;23.312;2023-04-25T04:53:05;94251.78;;;12.31;99.56
11124;BME280;5616;42.692;23.312;2023-04-25T04:55:51;94257.47;;;12.46;100.00
11124;BME280;5616;42.692;23.312;2023-04-25T04:58:30;94258.66;;;12.43;99.25
11124;BME280;5616;42.692;23.312;2023-04-25T05:01:15;94262.47;;;12.16;100.00
11124;BME280;5616;42.692;23.312;2023-04-25T05:04:05;94269.50;;;12.34;100.00
11124;BME280;5616;42.692;23.312;2023-04-25T05:06:50;94270.56;;;12.51;99.96
11124;BME280;5616;42.692;23.312;2023-04-25T05:09:41;94268.69;;;12.58;99.28
11124;BME280;5616;42.692;23.312;2023-04-25T05:12:26;94290.53;;;12.44;100.00
11124;BME280;5616;42.692;23.312;2023-04-25T05:15:08;94278.50;;;12.56;100.00
11124;BME280;5616;42.692;23.312;2023-04-25T05:18:07;94264.84;;;12.42;99.82
11124;BME280;5616;42.692;23.312;2023-04-25T05:20:59;94271.97;;;12.47;100.00
11124;BME280;5616;42.692;23.312;2023-04-25T05:23:44;94268.81;;;12.45;99.90
11124;BME280;5616;42.692;23.312;2023-04-25T05:26:24;94266.00;;;12.21;100.00
11124;BME280;5616;42.692;23.312;2023-04-25T05:29:04;94268.53;;;12.03;100.00
11124;BME280;5616;42.692;23.312;2023-04-25T05:31:41;94263.16;;;12.30;100.00
11124;BME280;5616;42.692;23.312;2023-04-25T05:34:12;94261.69;;;12.40;100.00
11124;BME280;5616;42.692;23.312;2023-04-25T05:36:59;94268.25;;;12.43;100.00
11124;BME280;5616;42.692;23.312;2023-04-25T05:39:26;94267.09;;;12.57;99.86
11124;BME280;5616;42.692;23.312;2023-04-25T05:42:11;94263.53;;;12.58;98.20
11124;BME280;5616;42.692;23.312;2023-04-25T05:44:44;94270.06;;;12.60;99.54
11124;BME280;5616;42.692;23.312;2023-04-25T05:47:23;94264.06;;;12.66;98.79
11124;BME280;5616;42.692;23.312;2023-04-25T05:49:59;94262.88;;;12.62;97.88
11124;BME280;5616;42.692;23.312;2023-04-25T05:52:44;94269.44;;;12.65;96.34
11124;BME280;5616;42.692;23.312;2023-04-25T05:55:24;94267.50;;;12.78;96.81
11124;BME280;5616;42.692;23.312;2023-04-25T05:57:50;94265.31;;;13.00;96.29
11124;BME280;5616;42.692;23.312;2023-04-25T06:00:17;94264.94;;;12.97;95.26
11124;BME280;5616;42.692;23.312;2023-04-25T06:02:49;94259.94;;;13.20;94.57
11124;BME280;5616;42.692;23.312;2023-04-25T06:05:17;94263.03;;;13.28;92.59
11124;BME280;5616;42.692;23.312;2023-04-25T06:07:45;94257.41;;;13.49;91.69
11124;BME280;5616;42.692;23.312;2023-04-25T06:10:13;94262.00;;;13.66;91.36
11124;BME280;5616;42.692;23.312;2023-04-25T06:12:41;94266.91;;;13.56;92.74
11124;BME280;5616;42.692;23.312;2023-04-25T06:15:08;94270.00;;;13.64;92.35
11124;BME280;5616;42.692;23.312;2023-04-25T06:17:35;94269.34;;;13.69;89.79
11124;BME280;5616;42.692;23.312;2023-04-25T06:20:05;94270.66;;;13.41;91.30
11124;BME280;5616;42.692;23.312;2023-04-25T06:22:33;94275.19;;;13.46;92.68
11124;BME280;5616;42.692;23.312;2023-04-25T06:25:00;94268.47;;;13.57;93.07
11124;BME280;5616;42.692;23.312;2023-04-25T06:27:29;94273.16;;;13.66;89.94
11124;BME280;5616;42.692;23.312;2023-04-25T06:29:56;94276.59;;;13.78;89.46
11124;BME280;5616;42.692;23.312;2023-04-25T06:32:24;94285.88;;;13.86;87.36
11124;BME280;5616;42.692;23.312;2023-04-25T06:34:53;94276.28;;;14.16;88.96
11124;BME280;5616;42.692;23.312;2023-04-25T06:37:22;94268.56;;;14.39;85.51
11124;BME280;5616;42.692;23.312;2023-04-25T06:39:50;94276.53;;;14.91;83.61
11124;BME280;5616;42.692;23.312;2023-04-25T06:42:17;94278.97;;;15.32;81.09
11124;BME280;5616;42.692;23.312;2023-04-25T06:44:57;94286.28;;;15.86;78.07
11124;BME280;5616;42.692;23.312;2023-04-25T06:47:24;94277.91;;;16.13;75.91
11124;BME280;5616;42.692;23.312;2023-04-25T06:49:50;94288.75;;;16.21;74.23
11124;BME280;5616;42.692;23.312;2023-04-25T06:52:18;94278.06;;;16.06;76.84
11124;BME280;5616;42.692;23.312;2023-04-25T06:54:48;94283.88;;;15.68;78.21
11124;BME280;5616;42.692;23.312;2023-04-25T06:57:28;94278.22;;;15.71;79.33
11124;BME280;5616;42.692;23.312;2023-04-25T06:59:59;94278.75;;;15.73;77.96
11124;BME280;5616;42.692;23.312;2023-04-25T07:02:26;94276.63;;;15.70;76.62
11124;BME280;5616;42.692;23.312;2023-04-25T07:04:53;94274.06;;;15.59;77.54
11124;BME280;5616;42.692;23.312;2023-04-25T07:07:21;94279.38;;;15.52;78.65
11124;BME280;5616;42.692;23.312;2023-04-25T07:09:55;94280.16;;;15.41;78.72
11124;BME280;5616;42.692;23.312;2023-04-25T07:12:22;94285.41;;;15.29;81.06
11124;BME280;5616;42.692;23.312;2023-04-25T07:14:49;94284.06;;;14.81;82.96
11124;BME280;5616;42.692;23.312;2023-04-25T07:17:16;94276.59;;;14.73;84.45
11124;BME280;5616;42.692;23.312;2023-04-25T07:19:43;94278.09;;;14.68;85.84
11124;BME280;5616;42.692;23.312;2023-04-25T07:22:10;94280.81;;;14.85;85.43
11124;BME280;5616;42.692;23.312;2023-04-25T07:24:40;94275.81;;;14.60;85.37
11124;BME280;5616;42.692;23.312;2023-04-25T07:27:10;94283.41;;;14.74;84.39
11124;BME280;5616;42.692;23.312;2023-04-25T07:29:53;94271.66;;;15.06;82.53
11124;BME280;5616;42.692;23.312;2023-04-25T07:32:22;94270.84;;;15.17;80.17
11124;BME280;5616;42.692;23.312;2023-04-25T07:34:49;94272.09;;;15.14;79.54
11124;BME280;5616;42.692;23.312;2023-04-25T07:37:16;94263.84;;;15.06;80.53
11124;BME280;5616;42.692;23.312;2023-04-25T07:39:57;94264.16;;;15.21;80.04
11124;BME280;5616;42.692;23.312;2023-04-25T07:42:25;94261.75;;;15.43;80.42
11124;BME280;5616;42.692;23.312;2023-04-25T07:44:52;94256.16;;;15.62;80.88
11124;BME280;5616;42.692;23.312;2023-04-25T07:47:19;94267.53;;;15.84;79.80
11124;BME280;5616;42.692;23.312;2023-04-25T07:49:46;94260.31;;;15.75;81.67
11124;BME280;5616;42.692;23.312;2023-04-25T07:52:13;94252.81;;;15.78;80.63
11124;BME280;5616;42.692;23.312;2023-04-25T07:54:46;94258.81;;;16.07;76.70
11124;BME280;5616;42.692;23.312;2023-04-25T07:57:18;94255.53;;;16.28;78.36
11124;BME280;5616;42.692;23.312;2023-04-25T07:59:48;94262.75;;;16.55;75.68
11124;BME280;5616;42.692;23.312;2023-04-25T08:02:15;94258.22;;;16.50;77.33
11124;BME280;5616;42.692;23.312;2023-04-25T08:04:42;94261.88;;;16.66;76.65
11124;BME280;5616;42.692;23.312;2023-04-25T08:07:11;94254.63;;;16.68;72.93
11124;BME280;5616;42.692;23.312;2023-04-25T08:09:47;94255.91;;;17.42;70.95
11124;BME280;5616;42.692;23.312;2023-04-25T08:12:22;94249.75;;;18.50;66.62
11124;BME280;5616;42.692;23.312;2023-04-25T08:14:50;94251.22;;;19.56;63.36
11124;BME280;5616;42.692;23.312;2023-04-25T08:17:17;94238.06;;;20.63;58.16
11124;BME280;5616;42.692;23.312;2023-04-25T08:19:44;94240.69;;;20.73;56.03
11124;BME280;5616;42.692;23.312;2023-04-25T08:22:20;94235.97;;;20.55;57.12
11124;BME280;5616;42.692;23.312;2023-04-25T08:24:53;94227.06;;;20.41;56.64
11124;BME280;5616;42.692;23.312;2023-04-25T08:27:20;94230.72;;;20.65;59.71
11124;BME280;5616;42.692;23.312;2023-04-25T08:29:47;94221.41;;;22.03;55.12
11124;BME280;5616;42.692;23.312;2023-04-25T08:32:16;94223.59;;;21.85;53.06
11124;BME280;5616;42.692;23.312;2023-04-25T08:34:56;94234.59;;;20.12;56.78
11124;BME280;5616;42.692;23.312;2023-04-25T08:37:22;94240.19;;;19.49;58.96
11124;BME280;5616;42.692;23.312;2023-04-25T08:39:55;94245.38;;;18.97;63.40
11124;BME280;5616;42.692;23.312;2023-04-25T08:42:53;94249.53;;;18.88;63.83
11124;BME280;5616;42.692;23.312;2023-04-25T08:45:20;94247.16;;;18.91;63.42
11124;BME280;5616;42.692;23.312;2023-04-25T08:47:51;94244.13;;;18.68;65.46
11124;BME280;5616;42.692;23.312;2023-04-25T08:50:19;94230.19;;;18.57;68.00
11124;BME280;5616;42.692;23.312;2023-04-25T08:52:53;94238.50;;;18.86;63.70
11124;BME280;5616;42.692;23.312;2023-04-25T08:55:21;94236.22;;;20.29;59.12
11124;BME280;5616;42.692;23.312;2023-04-25T08:57:54;94227.16;;;23.11;50.68
11124;BME280;5616;42.692;23.312;2023-04-25T09:00:21;94223.16;;;24.27;47.50
11124;BME280;5616;42.692;23.312;2023-04-25T09:02:48;94217.28;;;23.50;47.74
11124;BME280;5616;42.692;23.312;2023-04-25T09:05:18;94217.19;;;22.07;51.53
11124;BME280;5616;42.692;23.312;2023-04-25T09:07:45;94223.09;;;21.14;52.85
11124;BME280;5616;42.692;23.312;2023-04-25T09:10:11;94217.63;;;20.55;53.36
11124;BME280;5616;42.692;23.312;2023-04-25T09:12:38;94217.53;;;19.85;55.79
11124;BME280;5616;42.692;23.312;2023-04-25T09:15:09;94214.25;;;19.47;58.20
11124;BME280;5616;42.692;23.312;2023-04-25T09:17:45;94206.75;;;19.81;58.90
11124;BME280;5616;42.692;23.312;2023-04-25T09:20:13;94208.44;;;20.33;56.51
11124;BME280;5616;42.692;23.312;2023-04-25T09:22:45;94202.91;;;20.80;55.65
11124;BME280;5616;42.692;23.312;2023-04-25T09:25:13;94202.63;;;20.86;55.60
11124;BME280;5616;42.692;23.312;2023-04-25T09:27:53;94205.31;;;20.51;56.19
11124;BME280;5616;42.692;23.312;2023-04-25T09:30:32;94191.59;;;19.88;59.54
11124;BME280;5616;42.692;23.312;2023-04-25T09:33:31;94196.75;;;19.63;64.37
11124;BME280;5616;42.692;23.312;2023-04-25T09:36:02;94197.03;;;19.67;60.28
11124;BME280;5616;42.692;23.312;2023-04-25T09:38:59;94190.00;;;19.87;62.36
11124;BME280;5616;42.692;23.312;2023-04-25T09:41:31;94203.41;;;20.21;63.21
11124;BME280;5616;42.692;23.312;2023-04-25T09:44:01;94195.28;;;20.17;58.91
11124;BME280;5616;42.692;23.312;2023-04-25T09:46:34;94194.53;;;20.17;60.36
11124;BME280;5616;42.692;23.312;2023-04-25T09:49:06;94194.53;;;20.42;51.84
11124;BME280;5616;42.692;23.312;2023-04-25T09:51:54;94186.66;;;20.52;48.45
11124;BME280;5616;42.692;23.312;2023-04-25T09:54:24;94188.72;;;20.96;47.72
11124;BME280;5616;42.692;23.312;2023-04-25T09:57:08;94199.41;;;21.29;56.81
11124;BME280;5616;42.692;23.312;2023-04-25T09:59:38;94187.88;;;21.20;55.64
11124;BME280;5616;42.692;23.312;2023-04-25T10:02:07;94195.53;;;21.12;55.83
11124;BME280;5616;42.692;23.312;2023-04-25T10:04:37;94197.81;;;21.33;56.72
11124;BME280;5616;42.692;23.312;2023-04-25T10:07:11;94200.75;;;21.22;55.16
11124;BME280;5616;42.692;23.312;2023-04-25T10:09:47;94203.44;;;20.77;55.43
11124;BME280;5616;42.692;23.312;2023-04-25T10:12:16;94192.44;;;20.34;56.46
11124;BME280;5616;42.692;23.312;2023-04-25T10:14:44;94190.53;;;19.79;59.97
11124;BME280;5616;42.692;23.312;2023-04-25T10:17:10;94200.63;;;19.40;60.22
11124;BME280;5616;42.692;23.312;2023-04-25T10:19:38;94202.56;;;19.13;62.99
11124;BME280;5616;42.692;23.312;2023-04-25T10:22:08;94207.56;;;18.73;65.45
11124;BME280;5616;42.692;23.312;2023-04-25T10:24:39;94204.28;;;18.51;60.46
11124;BME280;5616;42.692;23.312;2023-04-25T10:27:08;94192.97;;;18.82;57.53
11124;BME280;5616;42.692;23.312;2023-04-25T10:29:35;94187.53;;;19.40;56.94
11124;BME280;5616;42.692;23.312;2023-04-25T10:32:02;94181.63;;;19.85;53.39
11124;BME280;5616;42.692;23.312;2023-04-25T10:34:40;94176.41;;;20.10;49.54
11124;BME280;5616;42.692;23.312;2023-04-25T10:37:09;94193.50;;;20.38;48.10
11124;BME280;5616;42.692;23.312;2023-04-25T10:39:38;94200.47;;;19.82;50.49
11124;BME280;5616;42.692;23.312;2023-04-25T10:42:05;94197.06;;;19.82;51.82
11124;BME280;5616;42.692;23.312;2023-04-25T10:44:34;94192.13;;;19.85;53.46
11124;BME280;5616;42.692;23.312;2023-04-25T10:47:03;94193.13;;;19.74;55.67
11124;BME280;5616;42.692;23.312;2023-04-25T10:49:33;94183.25;;;20.06;55.01
11124;BME280;5616;42.692;23.312;2023-04-25T10:52:17;94188.13;;;19.68;56.54
11124;BME280;5616;42.692;23.312;2023-04-25T10:54:49;94178.94;;;19.65;53.08
11124;BME280;5616;42.692;23.312;2023-04-25T10:57:37;94185.50;;;19.68;54.11
11124;BME280;5616;42.692;23.312;2023-04-25T11:00:08;94184.97;;;19.66;52.81
11124;BME280;5616;42.692;23.312;2023-04-25T11:02:44;94179.22;;;19.64;55.19
11124;BME280;5616;42.692;23.312;2023-04-25T11:05:20;94175.00;;;19.52;52.86
11124;BME280;5616;42.692;23.312;2023-04-25T11:07:53;94172.69;;;19.71;51.41
11124;BME280;5616;42.692;23.312;2023-04-25T11:10:25;94171.91;;;19.76;53.78
11124;BME280;5616;42.692;23.312;2023-04-25T11:12:52;94161.88;;;19.47;54.68
11124;BME280;5616;42.692;23.312;2023-04-25T11:15:20;94152.91;;;19.33;53.94
11124;BME280;5616;42.692;23.312;2023-04-25T11:17:47;94158.75;;;19.50;47.86
11124;BME280;5616;42.692;23.312;2023-04-25T11:20:14;94161.88;;;19.42;47.83
11124;BME280;5616;42.692;23.312;2023-04-25T11:22:41;94167.53;;;19.19;50.23
11124;BME280;5616;42.692;23.312;2023-04-25T11:25:10;94174.75;;;18.97;49.44
11124;BME280;5616;42.692;23.312;2023-04-25T11:27:38;94165.56;;;18.94;51.83
11124;BME280;5616;42.692;23.312;2023-04-25T11:30:13;94171.69;;;18.68;53.68
11124;BME280;5616;42.692;23.312;2023-04-25T11:32:42;94169.50;;;18.50;57.52
11124;BME280;5616;42.692;23.312;2023-04-25T11:35:10;94171.72;;;18.37;54.85
11124;BME280;5616;42.692;23.312;2023-04-25T11:37:39;94185.75;;;18.25;59.12
11124;BME280;5616;42.692;23.312;2023-04-25T11:40:07;94194.03;;;18.17;57.66
11124;BME280;5616;42.692;23.312;2023-04-25T11:42:36;94186.59;;;18.04;57.06
11124;BME280;5616;42.692;23.312;2023-04-25T11:45:04;94183.63;;;17.64;60.04
11124;BME280;5616;42.692;23.312;2023-04-25T11:47:31;94197.75;;;17.03;60.08
11124;BME280;5616;42.692;23.312;2023-04-25T11:50:00;94189.06;;;16.09;61.18
11124;BME280;5616;42.692;23.312;2023-04-25T11:52:46;94168.22;;;15.93;69.06
11124;BME280;5616;42.692;23.312;2023-04-25T11:55:14;94180.78;;;15.96;72.18
11124;BME280;5616;42.692;23.312;2023-04-25T11:57:42;94177.06;;;16.08;71.16
11124;BME280;5616;42.692;23.312;2023-04-25T12:00:11;94181.56;;;16.46;70.50
11124;BME280;5616;42.692;23.312;2023-04-25T12:02:42;94161.75;;;16.83;67.24
11124;BME280;5616;42.692;23.312;2023-04-25T12:05:12;94164.03;;;17.40;70.48
11124;BME280;5616;42.692;23.312;2023-04-25T12:07:39;94158.91;;;17.28;63.18
11124;BME280;5616;42.692;23.312;2023-04-25T12:10:07;94153.44;;;17.51;64.56
11124;BME280;5616;42.692;23.312;2023-04-25T12:12:35;94164.88;;;17.24;62.10
11124;BME280;5616;42.692;23.312;2023-04-25T12:15:10;94168.94;;;17.36;60.17
11124;BME280;5616;42.692;23.312;2023-04-25T12:17:38;94169.50;;;17.38;57.43
11124;BME280;5616;42.692;23.312;2023-04-25T12:20:12;94160.38;;;17.41;60.76
11124;BME280;5616;42.692;23.312;2023-04-25T12:22:41;94151.88;;;17.50;61.78
11124;BME280;5616;42.692;23.312;2023-04-25T12:25:10;94156.06;;;17.51;59.87
11124;BME280;5616;42.692;23.312;2023-04-25T12:27:37;94164.06;;;17.45;62.70
11124;BME280;5616;42.692;23.312;2023-04-25T12:30:07;94189.00;;;17.36;59.72
11124;BME280;5616;42.692;23.312;2023-04-25T12:32:34;94211.47;;;17.37;60.21
11124;BME280;5616;42.692;23.312;2023-04-25T12:35:01;94211.97;;;16.74;69.76
11124;BME280;5616;42.692;23.312;2023-04-25T12:37:29;94217.72;;;16.09;74.83
11124;BME280;5616;42.692;23.312;2023-04-25T12:39:56;94232.00;;;15.78;79.56
11124;BME280;5616;42.692;23.312;2023-04-25T12:42:23;94230.44;;;15.38;81.79
11124;BME280;5616;42.692;23.312;2023-04-25T12:44:50;94228.19;;;15.18;82.80
11124;BME280;5616;42.692;23.312;2023-04-25T12:47:17;94236.81;;;15.07;85.25
11124;BME280;5616;42.692;23.312;2023-04-25T12:49:44;94215.47;;;14.70;85.76
11124;BME280;5616;42.692;23.312;2023-04-25T12:52:11;94231.53;;;14.90;85.97
11124;BME280;5616;42.692;23.312;2023-04-25T12:54:39;94235.81;;;14.73;87.78
11124;BME280;5616;42.692;23.312;2023-04-25T12:57:06;94233.47;;;14.48;86.90
11124;BME280;5616;42.692;23.312;2023-04-25T12:59:33;94236.53;;;14.16;84.62
11124;BME280;5616;42.692;23.312;2023-04-25T13:01:59;94235.78;;;14.27;88.49
11124;BME280;5616;42.692;23.312;2023-04-25T13:04:26;94231.56;;;14.14;90.41
11124;BME280;5616;42.692;23.312;2023-04-25T13:06:53;94243.84;;;13.95;89.45
11124;BME280;5616;42.692;23.312;2023-04-25T13:09:20;94245.13;;;13.75;87.97
11124;BME280;5616;42.692;23.312;2023-04-25T13:11:48;94240.19;;;13.85;90.03
11124;BME280;5616;42.692;23.312;2023-04-25T13:14:15;94236.44;;;13.81;90.40
11124;BME280;5616;42.692;23.312;2023-04-25T13:16:42;94243.34;;;13.87;89.47